createdAt,value
2018-12-25T00:01:36.242Z,102135.72
2018-12-25T00:04:05.753Z,102135.52
2018-12-25T00:06:35.317Z,102141.48
2018-12-25T00:09:06.872Z,102132.30
2018-12-25T00:11:36.379Z,102131.31
2018-12-25T00:14:06.264Z,102126.34
2018-12-25T00:16:35.803Z,102134.25
2018-12-25T00:19:06.188Z,102144.78
2018-12-25T00:21:36.153Z,102139.71
2018-12-25T00:24:05.657Z,102136.42
2018-12-25T00:26:35.176Z,102139.60
2018-12-25T00:29:04.708Z,102136.81
2018-12-25T00:31:34.220Z,102132.70
2018-12-25T00:34:03.727Z,102127.63
2018-12-25T00:36:33.401Z,102131.20
2018-12-25T00:39:04.563Z,102133.98
2018-12-25T00:41:34.069Z,102124.53
2018-12-25T00:44:03.676Z,102120.16
2018-12-25T00:46:33.200Z,102120.86
2018-12-25T00:49:03.022Z,102116.19
2018-12-25T00:51:32.676Z,102120.56
2018-12-25T00:54:02.194Z,102120.07
2018-12-25T00:56:31.687Z,102119.58
2018-12-25T00:59:01.254Z,102122.66
2018-12-25T01:01:30.768Z,102118.28
2018-12-25T01:04:00.273Z,102128.63
2018-12-25T01:06:29.922Z,102130.91
2018-12-25T01:08:59.440Z,102130.11
2018-12-25T01:11:29.018Z,102123.34
2018-12-25T01:13:58.583Z,102120.75
2018-12-25T01:16:28.093Z,102134.57
2018-12-25T01:18:57.601Z,102136.36
2018-12-25T01:21:27.132Z,102145.10
2018-12-25T01:23:56.645Z,102135.16
2018-12-25T01:26:26.142Z,102135.96
2018-12-25T01:28:55.986Z,102143.52
2018-12-25T01:31:25.483Z,102137.77
2018-12-25T01:33:55.014Z,102149.30
2018-12-25T01:36:24.534Z,102144.33
2018-12-25T01:38:54.051Z,102146.81
2018-12-25T01:41:23.559Z,102139.41
2018-12-25T01:43:53.211Z,102142.38
2018-12-25T01:46:22.714Z,102142.38
2018-12-25T01:48:52.232Z,102139.41
2018-12-25T01:51:21.848Z,102135.69
2018-12-25T01:53:51.354Z,102144.42
2018-12-25T01:56:20.863Z,102133.39
2018-12-25T01:58:50.397Z,102129.11
2018-12-25T02:01:19.894Z,102136.56
2018-12-25T02:03:49.405Z,102137.45
2018-12-25T02:06:19.084Z,102139.34
2018-12-25T02:08:48.581Z,102139.53
2018-12-25T02:11:18.100Z,102131.44
2018-12-25T02:13:47.783Z,102129.45
2018-12-25T02:16:17.301Z,102130.84
2018-12-25T02:18:46.807Z,102133.52
2018-12-25T02:21:16.508Z,102128.53
2018-12-25T02:23:46.065Z,102128.73
2018-12-25T02:26:15.617Z,102127.98
2018-12-25T02:28:45.204Z,102122.52
2018-12-25T02:31:14.749Z,102128.58
2018-12-25T02:33:44.313Z,102120.02
2018-12-25T02:36:13.870Z,102114.85
2018-12-25T02:38:43.414Z,102113.16
2018-12-25T02:41:13.017Z,102116.05
2018-12-25T02:43:42.625Z,102109.98
2018-12-25T02:46:12.195Z,102107.70
2018-12-25T02:48:41.756Z,102117.65
2018-12-25T02:51:11.441Z,102107.89
2018-12-25T02:53:40.998Z,102102.02
2018-12-25T02:56:10.533Z,102107.68
2018-12-25T02:58:40.264Z,102099.44
2018-12-25T03:01:09.816Z,102109.06
2018-12-25T03:03:39.351Z,102104.70
2018-12-25T03:06:08.933Z,102100.82
2018-12-25T03:08:38.566Z,102096.84
2018-12-25T03:11:08.118Z,102101.22
2018-12-25T03:13:37.907Z,102097.65
2018-12-25T03:16:07.513Z,102094.97
2018-12-25T03:18:37.066Z,102088.91
2018-12-25T03:21:06.635Z,102090.20
2018-12-25T03:23:36.244Z,102089.80
2018-12-25T03:26:05.774Z,102086.32
2018-12-25T03:28:35.352Z,102089.80
2018-12-25T03:31:04.911Z,102093.06
2018-12-25T03:33:34.448Z,102082.02
2018-12-25T03:36:04.091Z,102089.28
2018-12-25T03:38:33.638Z,102094.05
2018-12-25T03:41:03.188Z,102082.32
2018-12-25T03:43:32.783Z,102086.29
2018-12-25T03:46:02.347Z,102089.86
2018-12-25T03:48:32.167Z,102083.31
2018-12-25T03:51:01.917Z,102074.26
2018-12-25T03:53:31.472Z,102078.13
2018-12-25T03:56:01.013Z,102084.38
2018-12-25T03:58:30.599Z,102082.35
2018-12-25T04:01:00.145Z,102073.39
2018-12-25T04:03:29.766Z,102073.98
2018-12-25T04:05:59.339Z,102081.43
2018-12-25T04:08:28.945Z,102078.94
2018-12-25T04:10:58.509Z,102074.75
2018-12-25T04:13:28.076Z,102070.37
2018-12-25T04:15:57.628Z,102062.22
2018-12-25T04:18:27.176Z,102057.53
2018-12-25T04:20:56.754Z,102054.95
2018-12-25T04:23:26.297Z,102060.61
2018-12-25T04:25:55.868Z,102066.67
2018-12-25T04:28:25.417Z,102063.20
2018-12-25T04:30:54.986Z,102064.98
2018-12-25T04:33:24.545Z,102075.82
2018-12-25T04:35:54.126Z,102063.75
2018-12-25T04:38:23.669Z,102071.11
2018-12-25T04:40:53.457Z,102060.70
2018-12-25T04:43:23.076Z,102064.09
2018-12-25T04:45:52.618Z,102069.66
2018-12-25T04:48:22.304Z,102062.31
2018-12-25T04:50:51.848Z,102069.66
2018-12-25T04:53:21.407Z,102070.47
2018-12-25T04:55:51.118Z,102071.27
2018-12-25T04:58:20.660Z,102069.88
2018-12-25T05:00:50.206Z,102073.80
2018-12-25T05:03:19.860Z,102078.88
2018-12-25T05:05:49.413Z,102071.91
2018-12-25T05:08:19.043Z,102078.38
2018-12-25T05:10:48.758Z,102069.33
2018-12-25T05:13:18.330Z,102072.96
2018-12-25T05:15:47.870Z,102075.86
2018-12-25T05:18:17.436Z,102074.69
2018-12-25T05:20:46.981Z,102081.80
2018-12-25T05:23:16.560Z,102085.48
2018-12-25T05:25:46.095Z,102082.22
2018-12-25T05:28:15.703Z,102073.47
2018-12-25T05:30:45.212Z,102078.16
2018-12-25T05:33:14.784Z,102085.25
2018-12-25T05:35:44.326Z,102089.84
2018-12-25T05:38:13.896Z,102095.31
2018-12-25T05:40:43.443Z,102099.09
2018-12-25T05:43:13.020Z,102106.35
2018-12-25T05:45:42.616Z,102095.82
2018-12-25T05:48:12.198Z,102106.95
2018-12-25T05:50:46.660Z,102105.17
2018-12-25T05:53:13.048Z,102102.09
2018-12-25T05:55:42.599Z,102100.73
2018-12-25T05:58:12.169Z,102097.27
2018-12-25T06:00:41.745Z,102095.08
2018-12-25T06:03:11.327Z,102096.36
2018-12-25T06:05:40.883Z,102101.20
2018-12-25T06:08:10.485Z,102101.20
2018-12-25T06:10:40.015Z,102099.20
2018-12-25T06:13:09.686Z,102101.79
2018-12-25T06:15:39.225Z,102096.72
2018-12-25T06:18:08.786Z,102092.53
2018-12-25T06:20:38.346Z,102098.20
2018-12-25T06:23:07.913Z,102093.12
2018-12-25T06:25:37.480Z,102090.23
2018-12-25T06:28:07.017Z,102101.07
2018-12-25T06:30:36.886Z,102098.18
2018-12-25T06:33:06.438Z,102097.34
2018-12-25T06:35:35.999Z,102097.94
2018-12-25T06:38:05.540Z,102085.20
2018-12-25T06:40:35.115Z,102089.27
2018-12-25T06:43:04.744Z,102076.44
2018-12-25T06:45:34.321Z,102082.09
2018-12-25T06:48:03.865Z,102069.66
2018-12-25T06:50:33.433Z,102053.76
2018-12-25T06:53:02.972Z,102060.47
2018-12-25T06:55:32.699Z,102067.52
2018-12-25T06:58:02.235Z,102068.10
2018-12-25T07:00:31.804Z,102055.27
2018-12-25T07:03:01.348Z,102070.96
2018-12-25T07:05:30.916Z,102065.39
2018-12-25T07:08:00.468Z,102049.13
2018-12-25T07:10:30.026Z,102053.91
2018-12-25T07:12:59.575Z,102043.47
2018-12-25T07:15:33.208Z,102045.20
2018-12-25T07:18:00.451Z,102043.47
2018-12-25T07:20:30.037Z,102035.31
2018-12-25T07:22:59.597Z,102037.59
2018-12-25T07:25:29.191Z,102040.98
2018-12-25T07:27:58.731Z,102032.81
2018-12-25T07:30:28.441Z,102040.58
2018-12-25T07:32:57.987Z,102030.54
2018-12-25T07:35:27.534Z,102030.88
2018-12-25T07:37:57.114Z,102026.33
2018-12-25T07:40:26.724Z,102028.33
2018-12-25T07:42:56.295Z,102017.09
2018-12-25T07:45:25.916Z,102023.47
2018-12-25T07:47:55.494Z,102019.69
2018-12-25T07:50:25.027Z,102016.20
2018-12-25T07:52:54.601Z,102006.57
2018-12-25T07:55:24.199Z,102009.25
2018-12-25T07:57:53.773Z,102015.71
2018-12-25T08:00:23.316Z,102019.59
2018-12-25T08:02:52.891Z,102004.08
2018-12-25T08:05:22.433Z,102023.47
2018-12-25T08:07:52.003Z,102030.02
2018-12-25T08:10:21.565Z,102026.33
2018-12-25T08:12:51.132Z,102030.79
2018-12-25T08:15:20.703Z,102036.45
2018-12-25T08:17:50.280Z,102043.47
2018-12-25T08:20:19.831Z,102036.30
2018-12-25T08:22:49.411Z,102033.40
2018-12-25T08:25:18.964Z,102046.82
2018-12-25T08:27:48.856Z,102044.42
2018-12-25T08:30:18.397Z,102043.80
2018-12-25T08:32:47.973Z,102044.34
2018-12-25T08:35:17.526Z,102042.25
2018-12-25T08:37:47.106Z,102049.61
2018-12-25T08:40:16.714Z,102047.70
2018-12-25T08:42:46.286Z,102038.34
2018-12-25T08:45:15.850Z,102035.22
2018-12-25T08:47:45.402Z,102027.20
2018-12-25T08:50:14.951Z,102036.44
2018-12-25T08:52:44.506Z,102036.13
2018-12-25T08:55:14.079Z,102024.66
2018-12-25T08:57:43.628Z,102027.08
2018-12-25T09:00:14.241Z,102024.75
2018-12-25T09:02:43.804Z,102027.61
2018-12-25T09:05:13.376Z,102033.36
2018-12-25T09:07:42.926Z,102052.05
2018-12-25T09:10:12.510Z,102047.42
2018-12-25T09:12:42.163Z,102053.67
2018-12-25T09:15:11.782Z,102052.95
2018-12-25T09:17:41.338Z,102049.56
2018-12-25T09:20:10.948Z,102049.25
2018-12-25T09:22:40.574Z,102056.84
2018-12-25T09:25:10.845Z,102057.10
2018-12-25T09:27:40.468Z,102055.98
2018-12-25T09:30:11.131Z,102049.19
2018-12-25T09:32:40.669Z,102035.12
2018-12-25T09:35:10.245Z,102031.78
2018-12-25T09:37:39.787Z,102042.31
2018-12-25T09:40:09.498Z,102023.14
2018-12-25T09:42:39.053Z,102030.73
2018-12-25T09:45:08.784Z,102036.57
2018-12-25T09:47:38.340Z,102028.25
2018-12-25T09:50:07.987Z,102031.73
2018-12-25T09:52:37.533Z,102026.23
2018-12-25T09:55:07.185Z,102015.55
2018-12-25T09:57:36.729Z,102022.56
2018-12-25T10:00:08.892Z,102017.46
2018-12-25T10:02:38.503Z,102021.03
2018-12-25T10:05:08.092Z,102028.28
2018-12-25T10:07:37.643Z,102025.58
2018-12-25T10:10:08.451Z,102024.45
2018-12-25T10:12:37.995Z,102031.99
2018-12-25T10:15:08.112Z,102035.72
2018-12-25T10:17:37.718Z,102023.08
2018-12-25T10:20:07.404Z,102018.14
2018-12-25T10:22:36.986Z,102026.64
2018-12-25T10:25:06.662Z,102026.64
2018-12-25T10:27:36.249Z,102026.41
2018-12-25T10:30:07.511Z,102022.11
2018-12-25T10:32:37.050Z,102032.39
2018-12-25T10:35:06.813Z,102028.34
2018-12-25T10:37:36.381Z,102025.58
2018-12-25T10:40:07.472Z,102018.61
2018-12-25T10:42:37.023Z,102026.87
2018-12-25T10:45:06.960Z,102023.97
2018-12-25T10:47:36.501Z,102026.89
2018-12-25T10:50:08.860Z,102033.42
2018-12-25T10:52:38.426Z,102027.35
2018-12-25T10:55:07.982Z,102024.41
2018-12-25T10:57:37.582Z,102030.64
2018-12-25T11:00:13.289Z,102024.33
2018-12-25T11:02:42.856Z,102035.27
2018-12-25T11:05:12.412Z,102020.67
2018-12-25T11:07:41.971Z,102016.95
2018-12-25T11:10:11.555Z,102018.97
2018-12-25T11:12:41.110Z,102024.24
2018-12-25T11:15:10.758Z,102024.16
2018-12-25T11:17:40.327Z,102012.17
2018-12-25T11:20:11.613Z,102026.02
2018-12-25T11:22:41.357Z,102019.09
2018-12-25T11:25:10.919Z,102012.36
2018-12-25T11:27:40.542Z,102021.56
2018-12-25T11:30:10.379Z,102019.13
2018-12-25T11:32:39.932Z,102025.20
2018-12-25T11:35:09.479Z,102024.11
2018-12-25T11:37:39.094Z,102014.41
2018-12-25T11:40:08.734Z,102015.15
2018-12-25T11:42:38.578Z,102023.99
2018-12-25T11:45:08.135Z,102023.42
2018-12-25T11:47:37.690Z,102012.64
2018-12-25T11:50:07.266Z,102016.21
2018-12-25T11:52:36.827Z,102025.04
2018-12-25T11:55:06.568Z,102028.12
2018-12-25T11:57:36.117Z,102029.18
2018-12-25T12:00:08.071Z,102031.13
2018-12-25T12:02:37.688Z,102022.00
2018-12-25T12:05:07.327Z,102016.33
2018-12-25T12:07:36.890Z,102025.33
2018-12-25T12:10:09.504Z,102021.11
2018-12-25T12:12:39.067Z,102024.84
2018-12-25T12:15:09.187Z,102016.25
2018-12-25T12:17:39.799Z,102022.00
2018-12-25T12:20:09.511Z,102012.64
2018-12-25T12:22:39.068Z,102009.72
2018-12-25T12:25:08.722Z,102018.96
2018-12-25T12:27:38.273Z,102015.31
2018-12-25T12:30:08.202Z,102020.09
2018-12-25T12:32:37.782Z,102018.63
2018-12-25T12:35:07.367Z,102017.50
2018-12-25T12:37:36.952Z,102013.53
2018-12-25T12:40:08.244Z,102011.98
2018-12-25T12:42:37.807Z,102023.59
2018-12-25T12:45:08.699Z,102013.53
2018-12-25T12:47:38.278Z,102009.64
2018-12-25T12:50:09.776Z,102011.18
2018-12-25T12:52:45.469Z,102025.28
2018-12-25T12:55:10.633Z,102023.17
2018-12-25T12:57:40.201Z,102023.91
2018-12-25T13:00:09.985Z,102023.83
2018-12-25T13:02:39.542Z,102015.88
2018-12-25T13:05:09.142Z,102026.10
2018-12-25T13:07:38.647Z,102023.42
2018-12-25T13:10:09.643Z,102021.56
2018-12-25T13:12:39.304Z,102026.75
2018-12-25T13:15:08.883Z,102019.73
2018-12-25T13:17:38.432Z,102015.03
2018-12-25T13:20:08.062Z,102022.25
2018-12-25T13:22:37.630Z,102020.06
2018-12-25T13:25:07.179Z,102013.58
2018-12-25T13:27:36.744Z,102019.58
2018-12-25T13:30:09.289Z,102020.39
2018-12-25T13:32:39.046Z,102019.42
2018-12-25T13:35:08.605Z,102018.45
2018-12-25T13:37:38.159Z,102024.28
2018-12-25T13:40:08.001Z,102036.39
2018-12-25T13:42:37.549Z,102028.45
2018-12-25T13:45:07.292Z,102030.16
2018-12-25T13:47:36.837Z,102032.59
2018-12-25T13:50:09.331Z,102035.98
2018-12-25T13:52:38.888Z,102035.98
2018-12-25T13:55:08.546Z,102038.98
2018-12-25T13:57:38.107Z,102042.88
2018-12-25T14:00:08.015Z,102040.20
2018-12-25T14:02:39.525Z,102038.42
2018-12-25T14:05:09.173Z,102045.30
2018-12-25T14:07:38.715Z,102044.41
2018-12-25T14:10:10.026Z,102054.70
2018-12-25T14:12:39.653Z,102051.63
2018-12-25T14:15:09.339Z,102044.25
2018-12-25T14:17:38.884Z,102042.09
2018-12-25T14:20:08.503Z,102053.20
2018-12-25T14:22:38.086Z,102049.63
2018-12-25T14:25:07.796Z,102043.96
2018-12-25T14:27:37.372Z,102039.98
2018-12-25T14:30:09.660Z,102047.68
2018-12-25T14:32:39.239Z,102050.36
2018-12-25T14:35:08.947Z,102048.58
2018-12-25T14:37:38.500Z,102048.81
2018-12-25T14:40:08.190Z,102049.14
2018-12-25T14:42:37.744Z,102047.79
2018-12-25T14:45:08.047Z,102038.55
2018-12-25T14:47:37.589Z,102038.95
2018-12-25T14:50:09.588Z,102055.41
2018-12-25T14:52:39.130Z,102049.73
2018-12-25T14:55:08.671Z,102044.46
2018-12-25T14:57:38.276Z,102046.65
2018-12-25T15:00:10.815Z,102056.13
2018-12-25T15:02:40.388Z,102053.94
2018-12-25T15:05:09.949Z,102047.05
2018-12-25T15:07:39.525Z,102046.16
2018-12-25T15:10:09.090Z,102050.05
2018-12-25T15:12:38.650Z,102031.42
2018-12-25T15:15:08.364Z,102043.89
2018-12-25T15:17:37.913Z,102038.22
2018-12-25T15:20:08.157Z,102033.44
2018-12-25T15:22:37.698Z,102033.44
2018-12-25T15:25:07.511Z,102039.03
2018-12-25T15:27:37.105Z,102028.17
2018-12-25T15:30:08.088Z,102033.36
2018-12-25T15:32:37.654Z,102033.77
2018-12-25T15:35:10.681Z,102028.50
2018-12-25T15:37:40.225Z,102037.11
2018-12-25T15:40:10.101Z,102037.03
2018-12-25T15:42:39.619Z,102031.77
2018-12-25T15:45:09.669Z,102033.95
2018-12-25T15:47:39.234Z,102023.98
2018-12-25T15:50:09.311Z,102044.40
2018-12-25T15:52:39.026Z,102036.55
2018-12-25T15:55:08.840Z,102041.32
2018-12-25T15:57:38.488Z,102033.55
2018-12-25T16:00:12.837Z,102036.55
2018-12-25T16:02:42.383Z,102041.72
2018-12-25T16:05:11.940Z,102034.84
2018-12-25T16:07:41.508Z,102029.66
2018-12-25T16:10:11.060Z,102023.09
2018-12-25T16:12:40.652Z,102028.69
2018-12-25T16:15:10.205Z,102036.05
2018-12-25T16:17:39.851Z,102029.98
2018-12-25T16:20:10.926Z,102025.20
2018-12-25T16:22:40.579Z,102028.56
2018-12-25T16:25:10.136Z,102025.89
2018-12-25T16:27:39.785Z,102029.29
2018-12-25T16:30:09.771Z,102026.30
2018-12-25T16:32:39.336Z,102018.44
2018-12-25T16:35:09.022Z,102024.02
2018-12-25T16:37:38.627Z,102014.55
2018-12-25T16:40:08.916Z,102008.48
2018-12-25T16:42:38.481Z,102006.29
2018-12-25T16:45:08.098Z,102016.66
2018-12-25T16:47:37.669Z,102016.57
2018-12-25T16:50:07.283Z,102017.86
2018-12-25T16:52:36.857Z,102016.57
2018-12-25T16:55:06.573Z,102011.39
2018-12-25T16:57:36.153Z,102022.64
2018-12-25T17:00:09.207Z,102019.65
2018-12-25T17:02:38.777Z,102015.36
2018-12-25T17:05:08.319Z,102025.23
2018-12-25T17:07:37.896Z,102020.05
2018-12-25T17:10:08.286Z,102023.53
2018-12-25T17:12:37.951Z,102016.17
2018-12-25T17:15:07.448Z,102019.65
2018-12-25T17:17:37.177Z,102015.84
2018-12-25T17:20:08.779Z,102014.55
2018-12-25T17:22:38.419Z,102010.27
2018-12-25T17:25:08.110Z,102019.33
2018-12-25T17:27:37.784Z,102026.21
2018-12-25T17:30:09.382Z,102018.92
2018-12-25T17:32:39.131Z,102022.00
2018-12-25T17:35:08.734Z,102028.48
2018-12-25T17:37:38.277Z,102040.23
2018-12-25T17:40:08.178Z,102030.78
2018-12-25T17:42:37.817Z,102035.65
2018-12-25T17:45:07.434Z,102040.02
2018-12-25T17:47:36.987Z,102041.72
2018-12-25T17:50:07.226Z,102034.76
2018-12-25T17:52:36.772Z,102033.95
2018-12-25T17:55:06.433Z,102043.91
2018-12-25T17:57:36.047Z,102036.95
2018-12-25T18:00:07.023Z,102042.53
2018-12-25T18:02:36.566Z,102030.38
2018-12-25T18:05:11.780Z,102034.95
2018-12-25T18:07:38.256Z,102037.55
2018-12-25T18:10:07.801Z,102033.09
2018-12-25T18:12:37.339Z,102049.53
2018-12-25T18:15:06.982Z,102033.98
2018-12-25T18:17:36.537Z,102039.66
2018-12-25T18:20:07.853Z,102039.66
2018-12-25T18:22:37.402Z,102039.73
2018-12-25T18:25:07.211Z,102039.86
2018-12-25T18:27:36.758Z,102040.23
2018-12-25T18:30:08.141Z,102050.22
2018-12-25T18:32:37.707Z,102046.22
2018-12-25T18:35:07.717Z,102028.48
2018-12-25T18:37:37.289Z,102038.84
2018-12-25T18:40:08.294Z,102041.92
2018-12-25T18:42:37.953Z,102033.27
2018-12-25T18:45:09.118Z,102037.06
2018-12-25T18:47:38.775Z,102034.88
2018-12-25T18:50:09.591Z,102037.37
2018-12-25T18:52:39.143Z,102039.17
2018-12-25T18:55:08.993Z,102032.69
2018-12-25T18:57:38.564Z,102038.27
2018-12-25T19:00:10.753Z,102035.20
2018-12-25T19:02:40.333Z,102033.98
2018-12-25T19:05:09.938Z,102028.72
2018-12-25T19:07:39.509Z,102025.55
2018-12-25T19:10:10.691Z,102018.95
2018-12-25T19:12:40.263Z,102020.56
2018-12-25T19:15:25.487Z,102028.16
2018-12-25T19:17:55.429Z,102014.55
2018-12-25T19:20:25.073Z,102033.00
2018-12-25T19:22:54.613Z,102029.87
2018-12-25T19:25:24.552Z,102044.92
2018-12-25T19:27:54.384Z,102034.21
2018-12-25T19:30:25.837Z,102042.39
2018-12-25T19:32:55.603Z,102043.23
2018-12-25T19:35:25.458Z,102033.41
2018-12-25T19:37:55.296Z,102038.67
2018-12-25T19:40:24.925Z,102053.50
2018-12-25T19:42:54.692Z,102053.98
2018-12-25T19:45:24.804Z,102055.77
2018-12-25T19:47:54.395Z,102053.58
2018-12-25T19:50:24.497Z,102053.17
2018-12-25T19:52:54.345Z,102051.08
2018-12-25T19:55:24.288Z,102063.13
2018-12-25T19:57:53.915Z,102052.77
2018-12-25T20:00:23.805Z,102052.28
2018-12-25T20:02:58.470Z,102058.36
2018-12-25T20:05:32.848Z,102052.28
2018-12-25T20:08:38.826Z,102053.66
2018-12-25T20:11:33.579Z,102051.48
2018-12-25T20:14:41.411Z,102054.55
2018-12-25T20:17:24.316Z,102045.89
2018-12-25T20:20:27.418Z,102048.89
2018-12-25T20:23:16.343Z,102045.00
2018-12-25T20:26:25.463Z,102043.30
2018-12-25T20:29:37.652Z,102042.90
2018-12-25T20:32:23.922Z,102041.60
2018-12-25T20:35:40.605Z,102050.27
2018-12-25T20:38:33.062Z,102036.91
2018-12-25T20:41:35.432Z,102040.39
2018-12-25T20:44:46.312Z,102031.81
2018-12-25T20:48:09.209Z,102035.21
2018-12-25T20:51:33.013Z,102035.61
2018-12-25T20:54:22.334Z,102024.36
2018-12-25T20:57:25.070Z,102027.84
2018-12-25T21:00:39.035Z,102024.84
2018-12-25T21:03:52.853Z,102024.84
2018-12-25T21:06:51.520Z,102017.48
2018-12-25T21:10:06.079Z,102009.39
2018-12-25T21:13:01.164Z,102018.54
2018-12-25T21:15:51.641Z,102018.59
2018-12-25T21:18:53.653Z,102012.55
2018-12-25T21:21:46.760Z,102010.91
2018-12-25T21:25:11.044Z,102020.86
2018-12-25T21:27:39.149Z,102008.31
2018-12-25T21:30:08.938Z,102014.38
2018-12-25T21:32:39.034Z,102014.47
2018-12-25T21:35:16.086Z,102011.06
2018-12-25T21:37:46.773Z,102006.37
2018-12-25T21:40:16.464Z,102010.83
2018-12-25T21:42:47.325Z,102004.88
2018-12-25T21:45:17.030Z,102005.36
2018-12-25T21:47:47.052Z,102011.92
2018-12-25T21:50:16.924Z,102009.73
2018-12-25T21:52:46.740Z,102000.66
2018-12-25T21:55:18.864Z,101999.45
2018-12-25T21:57:50.617Z,102004.15
2018-12-25T22:00:20.291Z,102004.64
2018-12-25T22:02:50.376Z,102007.31
2018-12-25T22:05:19.988Z,102014.19
2018-12-25T22:07:49.570Z,102018.97
2018-12-25T22:10:19.118Z,102010.35
2018-12-25T22:12:48.690Z,102013.92
2018-12-25T22:15:18.261Z,102010.92
2018-12-25T22:17:47.821Z,102008.91
2018-12-25T22:20:23.695Z,102012.87
2018-12-25T22:22:53.261Z,102012.87
2018-12-25T22:25:27.147Z,102010.69
2018-12-25T22:27:54.116Z,101998.53
2018-12-25T22:30:23.673Z,101997.23
2018-12-25T22:32:53.240Z,101999.02
2018-12-25T22:35:22.804Z,101997.32
2018-12-25T22:37:52.406Z,101988.66
2018-12-25T22:40:21.958Z,101994.33
2018-12-25T22:42:51.524Z,101987.44
2018-12-25T22:45:21.072Z,101993.92
2018-12-25T22:47:50.901Z,101990.92
2018-12-25T22:50:20.488Z,101990.44
2018-12-25T22:52:50.072Z,101992.22
2018-12-25T22:55:19.932Z,101977.97
2018-12-25T22:57:49.478Z,101976.34
2018-12-25T23:00:20.340Z,101972.05
2018-12-25T23:02:50.090Z,101968.08
2018-12-25T23:05:19.733Z,101961.60
2018-12-25T23:07:49.292Z,101965.00
2018-12-25T23:10:18.872Z,101966.70
2018-12-25T23:12:48.423Z,101957.63
2018-12-25T23:15:18.234Z,101948.56
2018-12-25T23:17:47.855Z,101955.53
2018-12-25T23:20:17.410Z,101960.30
2018-12-25T23:22:46.997Z,101958.13
2018-12-25T23:25:16.563Z,101961.28
2018-12-25T23:27:46.115Z,101956.98
2018-12-25T23:30:15.859Z,101956.17
2018-12-25T23:32:45.407Z,101954.88
2018-12-25T23:35:14.964Z,101956.22
2018-12-25T23:37:44.684Z,101948.04
2018-12-25T23:40:14.229Z,101947.59
2018-12-25T23:42:43.864Z,101947.23
2018-12-25T23:45:13.412Z,101945.05
2018-12-25T23:47:43.019Z,101941.56
2018-12-25T23:50:12.624Z,101940.27
2018-12-25T23:52:42.199Z,101930.30
2018-12-25T23:55:11.742Z,101926.41
2018-12-25T23:57:41.307Z,101923.02
